sensor_id;sensor_type;location;lat;lon;timestamp;P1;durP1;ratioP1;P2;durP2;ratioP2
69956;SDS011;57283;54.816;9.482;2023-11-19T00:00:27;6.70;;;2.97;;
69956;SDS011;57283;54.816;9.482;2023-11-19T00:02:55;6.95;;;3.00;;
69956;SDS011;57283;54.816;9.482;2023-11-19T00:05:22;6.43;;;2.72;;
69956;SDS011;57283;54.816;9.482;2023-11-19T00:07:51;7.28;;;3.35;;
69956;SDS011;57283;54.816;9.482;2023-11-19T00:10:19;7.28;;;3.67;;
69956;SDS011;57283;54.816;9.482;2023-11-19T00:12:47;6.03;;;2.85;;
69956;SDS011;57283;54.816;9.482;2023-11-19T00:15:16;7.05;;;3.22;;
69956;SDS011;57283;54.816;9.482;2023-11-19T00:17:45;9.13;;;3.33;;
69956;SDS011;57283;54.816;9.482;2023-11-19T00:20:15;7.10;;;3.10;;
69956;SDS011;57283;54.816;9.482;2023-11-19T00:22:43;7.10;;;3.20;;
69956;SDS011;57283;54.816;9.482;2023-11-19T00:25:17;6.55;;;3.13;;
69956;SDS011;57283;54.816;9.482;2023-11-19T00:27:45;6.35;;;2.67;;
69956;SDS011;57283;54.816;9.482;2023-11-19T00:30:14;5.65;;;2.75;;
69956;SDS011;57283;54.816;9.482;2023-11-19T00:32:42;6.38;;;3.13;;
69956;SDS011;57283;54.816;9.482;2023-11-19T00:35:09;6.20;;;2.50;;
69956;SDS011;57283;54.816;9.482;2023-11-19T00:37:37;7.03;;;2.63;;
69956;SDS011;57283;54.816;9.482;2023-11-19T00:40:06;7.38;;;3.80;;
69956;SDS011;57283;54.816;9.482;2023-11-19T00:42:36;7.78;;;2.80;;
69956;SDS011;57283;54.816;9.482;2023-11-19T00:45:04;6.43;;;2.88;;
69956;SDS011;57283;54.816;9.482;2023-11-19T00:47:35;5.93;;;2.97;;
69956;SDS011;57283;54.816;9.482;2023-11-19T00:50:03;5.50;;;2.83;;
69956;SDS011;57283;54.816;9.482;2023-11-19T00:52:31;6.05;;;2.97;;
69956;SDS011;57283;54.816;9.482;2023-11-19T00:54:58;6.43;;;2.88;;
69956;SDS011;57283;54.816;9.482;2023-11-19T00:57:26;7.50;;;3.30;;
69956;SDS011;57283;54.816;9.482;2023-11-19T00:59:55;6.22;;;3.08;;
69956;SDS011;57283;54.816;9.482;2023-11-19T01:02:23;6.13;;;3.17;;
69956;SDS011;57283;54.816;9.482;2023-11-19T01:04:50;7.20;;;3.13;;
69956;SDS011;57283;54.816;9.482;2023-11-19T01:07:18;5.85;;;2.72;;
69956;SDS011;57283;54.816;9.482;2023-11-19T01:09:48;6.25;;;3.25;;
69956;SDS011;57283;54.816;9.482;2023-11-19T01:12:15;6.35;;;3.08;;
69956;SDS011;57283;54.816;9.482;2023-11-19T01:14:43;5.75;;;3.05;;
69956;SDS011;57283;54.816;9.482;2023-11-19T01:17:12;5.70;;;3.05;;
69956;SDS011;57283;54.816;9.482;2023-11-19T01:19:40;6.45;;;2.80;;
69956;SDS011;57283;54.816;9.482;2023-11-19T01:22:08;6.20;;;2.63;;
69956;SDS011;57283;54.816;9.482;2023-11-19T01:24:36;5.68;;;2.70;;
69956;SDS011;57283;54.816;9.482;2023-11-19T01:27:03;6.90;;;2.80;;
69956;SDS011;57283;54.816;9.482;2023-11-19T01:29:31;5.10;;;2.53;;
69956;SDS011;57283;54.816;9.482;2023-11-19T01:31:59;5.45;;;2.80;;
69956;SDS011;57283;54.816;9.482;2023-11-19T01:34:28;5.72;;;2.30;;
69956;SDS011;57283;54.816;9.482;2023-11-19T01:36:56;4.45;;;2.08;;
69956;SDS011;57283;54.816;9.482;2023-11-19T01:39:23;5.00;;;2.22;;
69956;SDS011;57283;54.816;9.482;2023-11-19T01:41:51;5.18;;;2.50;;
69956;SDS011;57283;54.816;9.482;2023-11-19T01:44:19;7.07;;;3.08;;
69956;SDS011;57283;54.816;9.482;2023-11-19T01:46:46;5.53;;;2.13;;
69956;SDS011;57283;54.816;9.482;2023-11-19T01:49:15;4.68;;;2.20;;
69956;SDS011;57283;54.816;9.482;2023-11-19T01:51:44;5.97;;;2.53;;
69956;SDS011;57283;54.816;9.482;2023-11-19T01:54:12;4.97;;;2.42;;
69956;SDS011;57283;54.816;9.482;2023-11-19T01:56:41;6.47;;;2.97;;
69956;SDS011;57283;54.816;9.482;2023-11-19T01:59:09;6.07;;;2.67;;
69956;SDS011;57283;54.816;9.482;2023-11-19T02:01:40;5.22;;;2.70;;
69956;SDS011;57283;54.816;9.482;2023-11-19T02:04:08;5.70;;;2.92;;
69956;SDS011;57283;54.816;9.482;2023-11-19T02:06:36;6.70;;;2.78;;
69956;SDS011;57283;54.816;9.482;2023-11-19T02:09:06;6.78;;;3.20;;
69956;SDS011;57283;54.816;9.482;2023-11-19T02:11:34;5.82;;;2.72;;
69956;SDS011;57283;54.816;9.482;2023-11-19T02:14:02;6.18;;;2.47;;
69956;SDS011;57283;54.816;9.482;2023-11-19T02:16:30;5.03;;;2.30;;
69956;SDS011;57283;54.816;9.482;2023-11-19T02:18:58;6.28;;;2.83;;
69956;SDS011;57283;54.816;9.482;2023-11-19T02:21:26;5.38;;;2.50;;
69956;SDS011;57283;54.816;9.482;2023-11-19T02:23:53;4.53;;;2.35;;
69956;SDS011;57283;54.816;9.482;2023-11-19T02:26:37;4.72;;;2.17;;
69956;SDS011;57283;54.816;9.482;2023-11-19T02:29:08;4.97;;;2.38;;
69956;SDS011;57283;54.816;9.482;2023-11-19T02:31:35;4.97;;;2.00;;
69956;SDS011;57283;54.816;9.482;2023-11-19T02:34:03;4.82;;;2.33;;
69956;SDS011;57283;54.816;9.482;2023-11-19T02:36:32;5.38;;;2.65;;
69956;SDS011;57283;54.816;9.482;2023-11-19T02:38:59;5.13;;;2.03;;
69956;SDS011;57283;54.816;9.482;2023-11-19T02:41:28;5.40;;;2.10;;
69956;SDS011;57283;54.816;9.482;2023-11-19T02:43:55;6.15;;;2.55;;
69956;SDS011;57283;54.816;9.482;2023-11-19T02:46:24;4.97;;;1.90;;
69956;SDS011;57283;54.816;9.482;2023-11-19T02:48:52;4.13;;;1.52;;
69956;SDS011;57283;54.816;9.482;2023-11-19T02:51:20;5.57;;;2.10;;
69956;SDS011;57283;54.816;9.482;2023-11-19T02:53:48;3.83;;;1.90;;
69956;SDS011;57283;54.816;9.482;2023-11-19T02:56:15;5.63;;;2.50;;
69956;SDS011;57283;54.816;9.482;2023-11-19T02:58:46;4.60;;;2.10;;
69956;SDS011;57283;54.816;9.482;2023-11-19T03:01:21;3.78;;;1.52;;
69956;SDS011;57283;54.816;9.482;2023-11-19T03:03:51;4.88;;;2.15;;
69956;SDS011;57283;54.816;9.482;2023-11-19T03:06:21;4.60;;;2.00;;
69956;SDS011;57283;54.816;9.482;2023-11-19T03:08:49;4.20;;;1.75;;
69956;SDS011;57283;54.816;9.482;2023-11-19T03:11:16;5.93;;;2.00;;
69956;SDS011;57283;54.816;9.482;2023-11-19T03:13:44;4.35;;;1.95;;
69956;SDS011;57283;54.816;9.482;2023-11-19T03:16:13;3.83;;;1.55;;
69956;SDS011;57283;54.816;9.482;2023-11-19T03:18:40;3.75;;;1.45;;
69956;SDS011;57283;54.816;9.482;2023-11-19T03:21:09;3.85;;;1.70;;
69956;SDS011;57283;54.816;9.482;2023-11-19T03:23:37;3.38;;;1.33;;
69956;SDS011;57283;54.816;9.482;2023-11-19T03:26:06;6.07;;;1.30;;
69956;SDS011;57283;54.816;9.482;2023-11-19T03:28:35;3.50;;;1.60;;
69956;SDS011;57283;54.816;9.482;2023-11-19T03:31:04;3.47;;;1.45;;
69956;SDS011;57283;54.816;9.482;2023-11-19T03:33:34;3.40;;;1.20;;
69956;SDS011;57283;54.816;9.482;2023-11-19T03:36:02;3.33;;;1.40;;
69956;SDS011;57283;54.816;9.482;2023-11-19T03:38:31;3.05;;;1.20;;
69956;SDS011;57283;54.816;9.482;2023-11-19T03:40:59;3.50;;;1.40;;
69956;SDS011;57283;54.816;9.482;2023-11-19T03:43:26;3.20;;;1.20;;
69956;SDS011;57283;54.816;9.482;2023-11-19T03:45:54;3.40;;;1.33;;
69956;SDS011;57283;54.816;9.482;2023-11-19T03:48:22;3.28;;;1.17;;
69956;SDS011;57283;54.816;9.482;2023-11-19T03:50:49;3.83;;;1.20;;
69956;SDS011;57283;54.816;9.482;2023-11-19T03:53:17;3.38;;;1.10;;
69956;SDS011;57283;54.816;9.482;2023-11-19T03:55:46;3.05;;;1.08;;
69956;SDS011;57283;54.816;9.482;2023-11-19T03:58:16;4.32;;;0.98;;
69956;SDS011;57283;54.816;9.482;2023-11-19T04:00:43;3.10;;;1.10;;
69956;SDS011;57283;54.816;9.482;2023-11-19T04:03:11;2.92;;;0.90;;
69956;SDS011;57283;54.816;9.482;2023-11-19T04:05:39;2.80;;;0.85;;
69956;SDS011;57283;54.816;9.482;2023-11-19T04:08:06;3.00;;;1.00;;
69956;SDS011;57283;54.816;9.482;2023-11-19T04:10:34;2.72;;;1.00;;
69956;SDS011;57283;54.816;9.482;2023-11-19T04:13:03;3.03;;;1.00;;
69956;SDS011;57283;54.816;9.482;2023-11-19T04:15:31;2.90;;;1.10;;
69956;SDS011;57283;54.816;9.482;2023-11-19T04:17:58;2.75;;;0.80;;
69956;SDS011;57283;54.816;9.482;2023-11-19T04:20:27;2.55;;;0.70;;
69956;SDS011;57283;54.816;9.482;2023-11-19T04:22:54;3.30;;;1.00;;
69956;SDS011;57283;54.816;9.482;2023-11-19T04:25:22;2.70;;;0.80;;
69956;SDS011;57283;54.816;9.482;2023-11-19T04:27:52;2.60;;;0.80;;
69956;SDS011;57283;54.816;9.482;2023-11-19T04:30:21;3.00;;;0.95;;
69956;SDS011;57283;54.816;9.482;2023-11-19T04:32:49;3.08;;;0.90;;
69956;SDS011;57283;54.816;9.482;2023-11-19T04:35:16;2.92;;;1.02;;
69956;SDS011;57283;54.816;9.482;2023-11-19T04:37:45;2.50;;;0.70;;
69956;SDS011;57283;54.816;9.482;2023-11-19T04:40:14;2.65;;;0.80;;
69956;SDS011;57283;54.816;9.482;2023-11-19T04:42:41;2.83;;;0.90;;
69956;SDS011;57283;54.816;9.482;2023-11-19T04:45:09;2.47;;;0.80;;
69956;SDS011;57283;54.816;9.482;2023-11-19T04:47:38;2.70;;;0.80;;
69956;SDS011;57283;54.816;9.482;2023-11-19T04:50:06;2.40;;;0.60;;
69956;SDS011;57283;54.816;9.482;2023-11-19T04:52:37;2.80;;;0.70;;
69956;SDS011;57283;54.816;9.482;2023-11-19T04:55:06;2.40;;;0.70;;
69956;SDS011;57283;54.816;9.482;2023-11-19T04:57:38;2.70;;;0.70;;
69956;SDS011;57283;54.816;9.482;2023-11-19T05:00:05;4.60;;;0.80;;
69956;SDS011;57283;54.816;9.482;2023-11-19T05:02:44;2.83;;;0.80;;
69956;SDS011;57283;54.816;9.482;2023-11-19T05:05:12;2.40;;;0.60;;
69956;SDS011;57283;54.816;9.482;2023-11-19T05:07:39;2.33;;;0.70;;
69956;SDS011;57283;54.816;9.482;2023-11-19T05:10:07;2.42;;;0.63;;
69956;SDS011;57283;54.816;9.482;2023-11-19T05:12:35;2.63;;;0.80;;
69956;SDS011;57283;54.816;9.482;2023-11-19T05:15:03;2.20;;;0.60;;
69956;SDS011;57283;54.816;9.482;2023-11-19T05:17:31;2.45;;;0.73;;
69956;SDS011;57283;54.816;9.482;2023-11-19T05:20:00;2.63;;;0.90;;
69956;SDS011;57283;54.816;9.482;2023-11-19T05:22:28;2.67;;;0.80;;
69956;SDS011;57283;54.816;9.482;2023-11-19T05:24:55;2.60;;;0.90;;
69956;SDS011;57283;54.816;9.482;2023-11-19T05:27:23;2.70;;;0.90;;
69956;SDS011;57283;54.816;9.482;2023-11-19T05:29:51;2.70;;;0.80;;
69956;SDS011;57283;54.816;9.482;2023-11-19T05:32:18;2.80;;;1.15;;
69956;SDS011;57283;54.816;9.482;2023-11-19T05:34:46;3.05;;;1.10;;
69956;SDS011;57283;54.816;9.482;2023-11-19T05:37:19;3.00;;;1.05;;
69956;SDS011;57283;54.816;9.482;2023-11-19T05:39:47;3.05;;;1.15;;
69956;SDS011;57283;54.816;9.482;2023-11-19T05:42:14;3.20;;;1.20;;
69956;SDS011;57283;54.816;9.482;2023-11-19T05:44:42;2.75;;;0.93;;
69956;SDS011;57283;54.816;9.482;2023-11-19T05:47:09;2.90;;;1.00;;
69956;SDS011;57283;54.816;9.482;2023-11-19T05:49:37;3.10;;;1.10;;
69956;SDS011;57283;54.816;9.482;2023-11-19T05:52:05;2.83;;;0.93;;
69956;SDS011;57283;54.816;9.482;2023-11-19T05:54:37;2.92;;;1.00;;
69956;SDS011;57283;54.816;9.482;2023-11-19T05:57:05;2.75;;;0.93;;
69956;SDS011;57283;54.816;9.482;2023-11-19T05:59:32;2.80;;;0.93;;
69956;SDS011;57283;54.816;9.482;2023-11-19T06:02:00;3.25;;;1.27;;
69956;SDS011;57283;54.816;9.482;2023-11-19T06:04:28;4.90;;;1.00;;
69956;SDS011;57283;54.816;9.482;2023-11-19T06:06:56;3.30;;;1.20;;
69956;SDS011;57283;54.816;9.482;2023-11-19T06:09:24;3.00;;;1.20;;
69956;SDS011;57283;54.816;9.482;2023-11-19T06:11:53;4.03;;;1.40;;
69956;SDS011;57283;54.816;9.482;2023-11-19T06:14:21;4.38;;;1.30;;
69956;SDS011;57283;54.816;9.482;2023-11-19T06:16:50;3.67;;;1.30;;
69956;SDS011;57283;54.816;9.482;2023-11-19T06:19:18;3.42;;;1.20;;
69956;SDS011;57283;54.816;9.482;2023-11-19T06:21:46;3.10;;;1.10;;
69956;SDS011;57283;54.816;9.482;2023-11-19T06:24:14;3.00;;;1.20;;
69956;SDS011;57283;54.816;9.482;2023-11-19T06:26:41;3.22;;;1.10;;
69956;SDS011;57283;54.816;9.482;2023-11-19T06:29:10;3.47;;;1.20;;
69956;SDS011;57283;54.816;9.482;2023-11-19T06:31:40;3.50;;;1.30;;
69956;SDS011;57283;54.816;9.482;2023-11-19T06:34:08;3.58;;;1.35;;
69956;SDS011;57283;54.816;9.482;2023-11-19T06:36:35;3.80;;;1.40;;
69956;SDS011;57283;54.816;9.482;2023-11-19T06:39:04;4.03;;;1.27;;
69956;SDS011;57283;54.816;9.482;2023-11-19T06:41:32;4.00;;;1.38;;
69956;SDS011;57283;54.816;9.482;2023-11-19T06:43:59;4.53;;;1.80;;
69956;SDS011;57283;54.816;9.482;2023-11-19T06:46:28;4.45;;;1.65;;
69956;SDS011;57283;54.816;9.482;2023-11-19T06:48:56;4.50;;;1.48;;
69956;SDS011;57283;54.816;9.482;2023-11-19T06:51:23;5.13;;;1.98;;
69956;SDS011;57283;54.816;9.482;2023-11-19T06:53:51;4.75;;;1.95;;
69956;SDS011;57283;54.816;9.482;2023-11-19T06:56:19;5.35;;;1.90;;
69956;SDS011;57283;54.816;9.482;2023-11-19T06:58:47;6.82;;;2.10;;
69956;SDS011;57283;54.816;9.482;2023-11-19T07:01:15;6.47;;;1.90;;
69956;SDS011;57283;54.816;9.482;2023-11-19T07:03:44;7.07;;;2.25;;
69956;SDS011;57283;54.816;9.482;2023-11-19T07:06:13;8.00;;;2.38;;
69956;SDS011;57283;54.816;9.482;2023-11-19T07:08:41;5.97;;;1.90;;
69956;SDS011;57283;54.816;9.482;2023-11-19T07:11:08;7.63;;;2.20;;
69956;SDS011;57283;54.816;9.482;2023-11-19T07:13:36;4.82;;;1.95;;
69956;SDS011;57283;54.816;9.482;2023-11-19T07:16:04;8.77;;;1.98;;
69956;SDS011;57283;54.816;9.482;2023-11-19T07:18:32;5.68;;;2.22;;
69956;SDS011;57283;54.816;9.482;2023-11-19T07:21:03;5.10;;;2.15;;
69956;SDS011;57283;54.816;9.482;2023-11-19T07:23:31;5.53;;;2.00;;
69956;SDS011;57283;54.816;9.482;2023-11-19T07:25:59;14.57;;;2.17;;
69956;SDS011;57283;54.816;9.482;2023-11-19T07:28:27;6.82;;;2.40;;
69956;SDS011;57283;54.816;9.482;2023-11-19T07:30:55;5.17;;;2.00;;
69956;SDS011;57283;54.816;9.482;2023-11-19T07:33:25;5.45;;;2.05;;
69956;SDS011;57283;54.816;9.482;2023-11-19T07:35:53;6.82;;;2.40;;
69956;SDS011;57283;54.816;9.482;2023-11-19T07:38:22;6.97;;;2.28;;
69956;SDS011;57283;54.816;9.482;2023-11-19T07:40:50;7.38;;;2.55;;
69956;SDS011;57283;54.816;9.482;2023-11-19T07:43:21;7.73;;;2.43;;
69956;SDS011;57283;54.816;9.482;2023-11-19T07:45:48;9.13;;;2.53;;
69956;SDS011;57283;54.816;9.482;2023-11-19T07:48:16;8.05;;;2.60;;
69956;SDS011;57283;54.816;9.482;2023-11-19T07:50:49;8.30;;;2.47;;
69956;SDS011;57283;54.816;9.482;2023-11-19T07:53:17;6.55;;;2.65;;
69956;SDS011;57283;54.816;9.482;2023-11-19T07:55:46;7.53;;;3.10;;
69956;SDS011;57283;54.816;9.482;2023-11-19T07:58:13;10.38;;;3.65;;
69956;SDS011;57283;54.816;9.482;2023-11-19T08:00:41;9.27;;;3.45;;
69956;SDS011;57283;54.816;9.482;2023-11-19T08:03:09;10.50;;;3.60;;
69956;SDS011;57283;54.816;9.482;2023-11-19T08:05:37;11.75;;;3.47;;
69956;SDS011;57283;54.816;9.482;2023-11-19T08:08:05;12.30;;;3.90;;
69956;SDS011;57283;54.816;9.482;2023-11-19T08:10:33;8.50;;;3.00;;
69956;SDS011;57283;54.816;9.482;2023-11-19T08:13:02;8.60;;;3.20;;
69956;SDS011;57283;54.816;9.482;2023-11-19T08:15:30;8.77;;;3.60;;
69956;SDS011;57283;54.816;9.482;2023-11-19T08:17:58;8.07;;;3.15;;
69956;SDS011;57283;54.816;9.482;2023-11-19T08:20:26;7.70;;;3.40;;
69956;SDS011;57283;54.816;9.482;2023-11-19T08:22:53;13.52;;;3.47;;
69956;SDS011;57283;54.816;9.482;2023-11-19T08:25:21;12.25;;;3.92;;
69956;SDS011;57283;54.816;9.482;2023-11-19T08:27:49;8.85;;;3.17;;
69956;SDS011;57283;54.816;9.482;2023-11-19T08:30:18;11.10;;;3.50;;
69956;SDS011;57283;54.816;9.482;2023-11-19T08:32:45;13.27;;;3.80;;
69956;SDS011;57283;54.816;9.482;2023-11-19T08:35:12;15.55;;;3.17;;
69956;SDS011;57283;54.816;9.482;2023-11-19T08:37:42;11.50;;;3.38;;
69956;SDS011;57283;54.816;9.482;2023-11-19T08:40:11;14.82;;;3.65;;
69956;SDS011;57283;54.816;9.482;2023-11-19T08:42:40;11.40;;;3.65;;
69956;SDS011;57283;54.816;9.482;2023-11-19T08:45:08;19.53;;;3.77;;
69956;SDS011;57283;54.816;9.482;2023-11-19T08:47:38;13.30;;;3.92;;
69956;SDS011;57283;54.816;9.482;2023-11-19T08:50:07;17.60;;;3.67;;
69956;SDS011;57283;54.816;9.482;2023-11-19T08:52:35;13.18;;;3.30;;
69956;SDS011;57283;54.816;9.482;2023-11-19T08:55:03;16.35;;;3.83;;
69956;SDS011;57283;54.816;9.482;2023-11-19T08:57:32;11.67;;;3.53;;
69956;SDS011;57283;54.816;9.482;2023-11-19T09:00:00;14.63;;;3.40;;
69956;SDS011;57283;54.816;9.482;2023-11-19T09:02:28;15.18;;;3.25;;
69956;SDS011;57283;54.816;9.482;2023-11-19T09:04:57;19.95;;;3.80;;
69956;SDS011;57283;54.816;9.482;2023-11-19T09:07:25;14.60;;;3.20;;
69956;SDS011;57283;54.816;9.482;2023-11-19T09:09:53;18.47;;;3.27;;
69956;SDS011;57283;54.816;9.482;2023-11-19T09:12:20;12.55;;;2.42;;
69956;SDS011;57283;54.816;9.482;2023-11-19T09:14:48;14.20;;;3.25;;
69956;SDS011;57283;54.816;9.482;2023-11-19T09:17:16;14.23;;;3.90;;
69956;SDS011;57283;54.816;9.482;2023-11-19T09:19:44;19.83;;;4.22;;
69956;SDS011;57283;54.816;9.482;2023-11-19T09:22:13;17.63;;;4.87;;
69956;SDS011;57283;54.816;9.482;2023-11-19T09:24:41;16.00;;;3.25;;
69956;SDS011;57283;54.816;9.482;2023-11-19T09:27:10;23.35;;;3.90;;
69956;SDS011;57283;54.816;9.482;2023-11-19T09:29:38;15.82;;;3.90;;
69956;SDS011;57283;54.816;9.482;2023-11-19T09:32:06;21.33;;;3.97;;
69956;SDS011;57283;54.816;9.482;2023-11-19T09:34:34;19.57;;;3.83;;
69956;SDS011;57283;54.816;9.482;2023-11-19T09:37:02;24.15;;;4.22;;
69956;SDS011;57283;54.816;9.482;2023-11-19T09:39:31;25.92;;;4.68;;
69956;SDS011;57283;54.816;9.482;2023-11-19T09:41:59;22.35;;;3.85;;
69956;SDS011;57283;54.816;9.482;2023-11-19T09:44:26;17.42;;;4.20;;
69956;SDS011;57283;54.816;9.482;2023-11-19T09:46:54;20.77;;;4.93;;
69956;SDS011;57283;54.816;9.482;2023-11-19T09:49:22;25.33;;;4.68;;
69956;SDS011;57283;54.816;9.482;2023-11-19T09:51:55;23.77;;;4.22;;
69956;SDS011;57283;54.816;9.482;2023-11-19T09:54:23;22.30;;;4.82;;
69956;SDS011;57283;54.816;9.482;2023-11-19T09:56:52;23.35;;;4.60;;
69956;SDS011;57283;54.816;9.482;2023-11-19T09:59:19;23.87;;;5.10;;
69956;SDS011;57283;54.816;9.482;2023-11-19T10:01:47;18.50;;;4.15;;
69956;SDS011;57283;54.816;9.482;2023-11-19T10:04:15;17.30;;;4.32;;
69956;SDS011;57283;54.816;9.482;2023-11-19T10:06:43;20.42;;;4.15;;
69956;SDS011;57283;54.816;9.482;2023-11-19T10:09:11;20.92;;;4.57;;
69956;SDS011;57283;54.816;9.482;2023-11-19T10:11:39;26.07;;;5.10;;
69956;SDS011;57283;54.816;9.482;2023-11-19T10:14:08;24.55;;;4.30;;
69956;SDS011;57283;54.816;9.482;2023-11-19T10:16:36;21.00;;;5.60;;
69956;SDS011;57283;54.816;9.482;2023-11-19T10:19:05;19.42;;;4.45;;
69956;SDS011;57283;54.816;9.482;2023-11-19T10:21:35;25.75;;;5.05;;
69956;SDS011;57283;54.816;9.482;2023-11-19T10:24:02;21.27;;;3.60;;
69956;SDS011;57283;54.816;9.482;2023-11-19T10:26:33;25.40;;;5.00;;
69956;SDS011;57283;54.816;9.482;2023-11-19T10:29:04;24.88;;;4.97;;
69956;SDS011;57283;54.816;9.482;2023-11-19T10:31:33;23.20;;;4.28;;
69956;SDS011;57283;54.816;9.482;2023-11-19T10:34:00;15.25;;;4.38;;
69956;SDS011;57283;54.816;9.482;2023-11-19T10:36:37;18.53;;;4.40;;
69956;SDS011;57283;54.816;9.482;2023-11-19T10:39:04;20.08;;;4.13;;
69956;SDS011;57283;54.816;9.482;2023-11-19T10:41:32;23.13;;;5.15;;
69956;SDS011;57283;54.816;9.482;2023-11-19T10:44:00;24.58;;;5.20;;
69956;SDS011;57283;54.816;9.482;2023-11-19T10:46:38;21.40;;;4.85;;
69956;SDS011;57283;54.816;9.482;2023-11-19T10:49:07;25.57;;;5.40;;
69956;SDS011;57283;54.816;9.482;2023-11-19T10:51:35;21.75;;;3.97;;
69956;SDS011;57283;54.816;9.482;2023-11-19T10:54:03;20.50;;;4.20;;
69956;SDS011;57283;54.816;9.482;2023-11-19T10:56:33;19.92;;;4.70;;
69956;SDS011;57283;54.816;9.482;2023-11-19T10:59:02;23.23;;;4.80;;
69956;SDS011;57283;54.816;9.482;2023-11-19T11:01:50;19.63;;;4.20;;
69956;SDS011;57283;54.816;9.482;2023-11-19T11:04:22;26.70;;;4.65;;
69956;SDS011;57283;54.816;9.482;2023-11-19T11:06:50;19.90;;;4.75;;
69956;SDS011;57283;54.816;9.482;2023-11-19T11:09:18;19.73;;;4.70;;
69956;SDS011;57283;54.816;9.482;2023-11-19T11:11:46;21.50;;;4.97;;
69956;SDS011;57283;54.816;9.482;2023-11-19T11:14:14;22.77;;;4.40;;
69956;SDS011;57283;54.816;9.482;2023-11-19T11:16:43;24.25;;;4.65;;
69956;SDS011;57283;54.816;9.482;2023-11-19T11:19:13;20.08;;;4.38;;
69956;SDS011;57283;54.816;9.482;2023-11-19T11:21:43;23.10;;;4.75;;
69956;SDS011;57283;54.816;9.482;2023-11-19T11:27:05;23.47;;;4.30;;
69956;SDS011;57283;54.816;9.482;2023-11-19T11:29:37;19.05;;;3.53;;
69956;SDS011;57283;54.816;9.482;2023-11-19T11:32:14;23.40;;;5.00;;
69956;SDS011;57283;54.816;9.482;2023-11-19T11:34:52;17.98;;;3.83;;
69956;SDS011;57283;54.816;9.482;2023-11-19T11:37:25;20.58;;;4.80;;
69956;SDS011;57283;54.816;9.482;2023-11-19T11:39:53;26.40;;;4.90;;
69956;SDS011;57283;54.816;9.482;2023-11-19T11:42:31;17.38;;;3.65;;
69956;SDS011;57283;54.816;9.482;2023-11-19T11:44:59;27.65;;;4.35;;
69956;SDS011;57283;54.816;9.482;2023-11-19T11:50:32;23.10;;;4.10;;
69956;SDS011;57283;54.816;9.482;2023-11-19T11:53:15;22.20;;;3.97;;
69956;SDS011;57283;54.816;9.482;2023-11-19T11:55:55;16.42;;;3.25;;
69956;SDS011;57283;54.816;9.482;2023-11-19T11:58:26;23.77;;;4.47;;
69956;SDS011;57283;54.816;9.482;2023-11-19T12:00:53;21.65;;;3.90;;
69956;SDS011;57283;54.816;9.482;2023-11-19T12:03:21;23.83;;;4.63;;
69956;SDS011;57283;54.816;9.482;2023-11-19T12:05:50;18.03;;;3.73;;
69956;SDS011;57283;54.816;9.482;2023-11-19T12:08:18;21.77;;;3.83;;
69956;SDS011;57283;54.816;9.482;2023-11-19T12:10:51;16.98;;;3.40;;
69956;SDS011;57283;54.816;9.482;2023-11-19T12:13:20;17.80;;;3.25;;
69956;SDS011;57283;54.816;9.482;2023-11-19T12:18:31;19.17;;;3.97;;
69956;SDS011;57283;54.816;9.482;2023-11-19T12:21:00;20.10;;;4.90;;
69956;SDS011;57283;54.816;9.482;2023-11-19T12:23:28;16.80;;;4.22;;
69956;SDS011;57283;54.816;9.482;2023-11-19T12:25:56;17.40;;;3.58;;
69956;SDS011;57283;54.816;9.482;2023-11-19T12:28:24;17.25;;;3.40;;
69956;SDS011;57283;54.816;9.482;2023-11-19T12:30:53;26.20;;;3.50;;
69956;SDS011;57283;54.816;9.482;2023-11-19T12:33:20;18.15;;;3.75;;
69956;SDS011;57283;54.816;9.482;2023-11-19T12:35:48;14.55;;;3.88;;
69956;SDS011;57283;54.816;9.482;2023-11-19T12:38:20;18.30;;;3.65;;
69956;SDS011;57283;54.816;9.482;2023-11-19T12:40:57;17.45;;;3.67;;
69956;SDS011;57283;54.816;9.482;2023-11-19T12:43:29;19.00;;;4.30;;
69956;SDS011;57283;54.816;9.482;2023-11-19T12:45:57;18.23;;;3.90;;
69956;SDS011;57283;54.816;9.482;2023-11-19T12:48:24;18.08;;;3.58;;
69956;SDS011;57283;54.816;9.482;2023-11-19T12:50:52;16.88;;;3.78;;
69956;SDS011;57283;54.816;9.482;2023-11-19T12:53:21;17.65;;;4.07;;
69956;SDS011;57283;54.816;9.482;2023-11-19T12:55:50;14.93;;;3.37;;
69956;SDS011;57283;54.816;9.482;2023-11-19T12:58:30;19.33;;;3.33;;
69956;SDS011;57283;54.816;9.482;2023-11-19T13:01:01;19.08;;;3.58;;
69956;SDS011;57283;54.816;9.482;2023-11-19T13:03:29;18.25;;;4.90;;
69956;SDS011;57283;54.816;9.482;2023-11-19T13:06:01;21.92;;;4.47;;
69956;SDS011;57283;54.816;9.482;2023-11-19T13:08:35;19.57;;;3.43;;
69956;SDS011;57283;54.816;9.482;2023-11-19T13:11:04;17.50;;;4.03;;
69956;SDS011;57283;54.816;9.482;2023-11-19T13:13:32;17.45;;;3.55;;
69956;SDS011;57283;54.816;9.482;2023-11-19T13:16:02;20.88;;;3.97;;
69956;SDS011;57283;54.816;9.482;2023-11-19T13:18:32;22.98;;;4.22;;
69956;SDS011;57283;54.816;9.482;2023-11-19T13:21:02;20.40;;;4.37;;
69956;SDS011;57283;54.816;9.482;2023-11-19T13:23:32;16.02;;;3.92;;
69956;SDS011;57283;54.816;9.482;2023-11-19T13:26:01;21.30;;;4.10;;
69956;SDS011;57283;54.816;9.482;2023-11-19T13:28:30;20.35;;;4.25;;
69956;SDS011;57283;54.816;9.482;2023-11-19T13:30:58;17.80;;;3.65;;
69956;SDS011;57283;54.816;9.482;2023-11-19T13:33:26;19.47;;;3.63;;
69956;SDS011;57283;54.816;9.482;2023-11-19T13:35:54;23.30;;;3.80;;
69956;SDS011;57283;54.816;9.482;2023-11-19T13:38:21;19.30;;;3.85;;
69956;SDS011;57283;54.816;9.482;2023-11-19T13:40:50;20.95;;;4.32;;
69956;SDS011;57283;54.816;9.482;2023-11-19T13:43:18;16.75;;;3.65;;
69956;SDS011;57283;54.816;9.482;2023-11-19T13:45:48;23.00;;;4.80;;
69956;SDS011;57283;54.816;9.482;2023-11-19T13:48:17;23.30;;;3.78;;
69956;SDS011;57283;54.816;9.482;2023-11-19T13:50:44;21.20;;;4.07;;
69956;SDS011;57283;54.816;9.482;2023-11-19T13:53:12;17.20;;;3.55;;
69956;SDS011;57283;54.816;9.482;2023-11-19T13:55:40;24.23;;;4.05;;
69956;SDS011;57283;54.816;9.482;2023-11-19T13:58:10;18.43;;;3.63;;
69956;SDS011;57283;54.816;9.482;2023-11-19T14:00:37;18.73;;;3.70;;
69956;SDS011;57283;54.816;9.482;2023-11-19T14:03:05;21.23;;;3.83;;
69956;SDS011;57283;54.816;9.482;2023-11-19T14:05:33;17.98;;;3.60;;
69956;SDS011;57283;54.816;9.482;2023-11-19T14:08:03;23.15;;;3.88;;
69956;SDS011;57283;54.816;9.482;2023-11-19T14:10:49;18.57;;;3.90;;
69956;SDS011;57283;54.816;9.482;2023-11-19T14:13:18;21.48;;;3.72;;
69956;SDS011;57283;54.816;9.482;2023-11-19T14:15:45;20.88;;;3.80;;
69956;SDS011;57283;54.816;9.482;2023-11-19T14:18:15;18.35;;;4.03;;
69956;SDS011;57283;54.816;9.482;2023-11-19T14:20:43;20.33;;;3.97;;
69956;SDS011;57283;54.816;9.482;2023-11-19T14:23:11;18.60;;;3.63;;
69956;SDS011;57283;54.816;9.482;2023-11-19T14:25:39;16.80;;;3.45;;
69956;SDS011;57283;54.816;9.482;2023-11-19T14:28:06;16.40;;;3.75;;
69956;SDS011;57283;54.816;9.482;2023-11-19T14:30:36;19.23;;;3.55;;
69956;SDS011;57283;54.816;9.482;2023-11-19T14:33:04;19.83;;;3.55;;
69956;SDS011;57283;54.816;9.482;2023-11-19T14:35:32;18.30;;;3.87;;
69956;SDS011;57283;54.816;9.482;2023-11-19T14:38:00;18.63;;;3.78;;
69956;SDS011;57283;54.816;9.482;2023-11-19T14:40:31;23.60;;;4.28;;
69956;SDS011;57283;54.816;9.482;2023-11-19T14:43:01;16.75;;;3.92;;
69956;SDS011;57283;54.816;9.482;2023-11-19T14:45:29;18.60;;;3.88;;
69956;SDS011;57283;54.816;9.482;2023-11-19T14:48:08;21.80;;;3.80;;
69956;SDS011;57283;54.816;9.482;2023-11-19T14:50:36;23.55;;;4.28;;
69956;SDS011;57283;54.816;9.482;2023-11-19T14:53:04;21.77;;;3.85;;
69956;SDS011;57283;54.816;9.482;2023-11-19T14:55:32;19.80;;;4.00;;
69956;SDS011;57283;54.816;9.482;2023-11-19T14:57:59;19.65;;;4.22;;